sensor_id;sensor_type;location;lat;lon;timestamp;temperature;humidity
42199;DHT22;27868;45.184;5.786;2022-08-19T00:02:04;22.00;83.70
42199;DHT22;27868;45.184;5.786;2022-08-19T00:04:49;22.00;83.90
42199;DHT22;27868;45.184;5.786;2022-08-19T00:07:36;21.90;83.80
42199;DHT22;27868;45.184;5.786;2022-08-19T00:10:22;22.00;84.10
42199;DHT22;27868;45.184;5.786;2022-08-19T00:13:08;22.00;84.20
42199;DHT22;27868;45.184;5.786;2022-08-19T00:15:54;22.00;84.30
42199;DHT22;27868;45.184;5.786;2022-08-19T00:18:39;21.90;84.40
42199;DHT22;27868;45.184;5.786;2022-08-19T00:21:25;21.90;84.50
42199;DHT22;27868;45.184;5.786;2022-08-19T00:24:13;21.90;84.80
42199;DHT22;27868;45.184;5.786;2022-08-19T00:26:58;21.90;85.00
42199;DHT22;27868;45.184;5.786;2022-08-19T00:29:43;21.90;85.00
42199;DHT22;27868;45.184;5.786;2022-08-19T00:32:28;21.90;85.10
42199;DHT22;27868;45.184;5.786;2022-08-19T00:35:13;21.90;85.00
42199;DHT22;27868;45.184;5.786;2022-08-19T00:37:58;21.90;85.00
42199;DHT22;27868;45.184;5.786;2022-08-19T00:40:44;21.90;85.10
42199;DHT22;27868;45.184;5.786;2022-08-19T00:43:31;21.90;85.20
42199;DHT22;27868;45.184;5.786;2022-08-19T00:46:15;21.90;85.50
42199;DHT22;27868;45.184;5.786;2022-08-19T00:49:00;21.90;85.50
42199;DHT22;27868;45.184;5.786;2022-08-19T00:51:50;21.90;85.60
42199;DHT22;27868;45.184;5.786;2022-08-19T00:54:37;21.80;85.40
42199;DHT22;27868;45.184;5.786;2022-08-19T00:57:35;21.80;85.20
42199;DHT22;27868;45.184;5.786;2022-08-19T01:00:23;21.80;85.20
42199;DHT22;27868;45.184;5.786;2022-08-19T01:03:11;21.70;84.90
42199;DHT22;27868;45.184;5.786;2022-08-19T01:05:57;21.70;85.30
42199;DHT22;27868;45.184;5.786;2022-08-19T01:08:42;21.70;86.10
42199;DHT22;27868;45.184;5.786;2022-08-19T01:11:27;21.70;85.50
42199;DHT22;27868;45.184;5.786;2022-08-19T01:14:13;21.70;85.60
42199;DHT22;27868;45.184;5.786;2022-08-19T01:16:59;21.70;85.70
42199;DHT22;27868;45.184;5.786;2022-08-19T01:19:45;21.70;85.70
42199;DHT22;27868;45.184;5.786;2022-08-19T01:22:35;21.60;85.90
42199;DHT22;27868;45.184;5.786;2022-08-19T01:25:31;21.60;85.70
42199;DHT22;27868;45.184;5.786;2022-08-19T01:28:20;21.60;85.90
42199;DHT22;27868;45.184;5.786;2022-08-19T01:31:12;21.60;86.20
42199;DHT22;27868;45.184;5.786;2022-08-19T01:33:58;21.60;86.30
42199;DHT22;27868;45.184;5.786;2022-08-19T01:36:45;21.60;86.40
42199;DHT22;27868;45.184;5.786;2022-08-19T01:39:31;21.60;86.40
42199;DHT22;27868;45.184;5.786;2022-08-19T01:42:16;21.60;86.30
42199;DHT22;27868;45.184;5.786;2022-08-19T01:45:00;21.60;86.10
42199;DHT22;27868;45.184;5.786;2022-08-19T01:47:45;21.50;86.10
42199;DHT22;27868;45.184;5.786;2022-08-19T01:50:33;21.60;86.50
42199;DHT22;27868;45.184;5.786;2022-08-19T01:53:18;21.60;86.50
42199;DHT22;27868;45.184;5.786;2022-08-19T01:56:03;21.60;86.50
42199;DHT22;27868;45.184;5.786;2022-08-19T01:58:56;21.50;86.60
42199;DHT22;27868;45.184;5.786;2022-08-19T02:01:41;21.50;86.70
42199;DHT22;27868;45.184;5.786;2022-08-19T02:04:25;21.50;86.90
42199;DHT22;27868;45.184;5.786;2022-08-19T02:07:11;21.60;87.10
42199;DHT22;27868;45.184;5.786;2022-08-19T02:09:56;21.60;87.20
42199;DHT22;27868;45.184;5.786;2022-08-19T02:12:41;21.60;87.30
42199;DHT22;27868;45.184;5.786;2022-08-19T02:15:26;21.50;87.20
42199;DHT22;27868;45.184;5.786;2022-08-19T02:18:12;21.50;87.20
42199;DHT22;27868;45.184;5.786;2022-08-19T02:20:56;21.60;87.30
42199;DHT22;27868;45.184;5.786;2022-08-19T02:23:42;21.50;87.10
42199;DHT22;27868;45.184;5.786;2022-08-19T02:26:26;21.50;87.00
42199;DHT22;27868;45.184;5.786;2022-08-19T02:29:11;21.60;87.30
42199;DHT22;27868;45.184;5.786;2022-08-19T02:31:56;21.60;87.30
42199;DHT22;27868;45.184;5.786;2022-08-19T02:34:41;21.50;87.40
42199;DHT22;27868;45.184;5.786;2022-08-19T02:37:25;21.50;87.40
42199;DHT22;27868;45.184;5.786;2022-08-19T02:40:32;21.60;87.50
42199;DHT22;27868;45.184;5.786;2022-08-19T02:43:21;21.50;87.60
42199;DHT22;27868;45.184;5.786;2022-08-19T02:46:35;21.50;87.70
42199;DHT22;27868;45.184;5.786;2022-08-19T02:49:19;21.50;87.30
42199;DHT22;27868;45.184;5.786;2022-08-19T02:52:04;21.50;87.90
42199;DHT22;27868;45.184;5.786;2022-08-19T02:54:49;21.50;87.90
42199;DHT22;27868;45.184;5.786;2022-08-19T02:57:33;21.50;87.80
42199;DHT22;27868;45.184;5.786;2022-08-19T03:00:19;21.50;87.80
42199;DHT22;27868;45.184;5.786;2022-08-19T03:03:03;21.50;87.90
42199;DHT22;27868;45.184;5.786;2022-08-19T03:05:48;21.50;87.90
42199;DHT22;27868;45.184;5.786;2022-08-19T03:08:32;21.50;88.10
42199;DHT22;27868;45.184;5.786;2022-08-19T03:11:25;21.50;88.30
42199;DHT22;27868;45.184;5.786;2022-08-19T03:14:11;21.50;88.30
42199;DHT22;27868;45.184;5.786;2022-08-19T03:16:57;21.50;88.50
42199;DHT22;27868;45.184;5.786;2022-08-19T03:19:42;21.50;88.60
42199;DHT22;27868;45.184;5.786;2022-08-19T03:22:27;21.50;88.60
42199;DHT22;27868;45.184;5.786;2022-08-19T03:25:13;21.50;88.60
42199;DHT22;27868;45.184;5.786;2022-08-19T03:27:57;21.50;88.60
42199;DHT22;27868;45.184;5.786;2022-08-19T03:30:53;21.50;88.60
42199;DHT22;27868;45.184;5.786;2022-08-19T03:33:40;21.50;88.60
42199;DHT22;27868;45.184;5.786;2022-08-19T03:36:26;21.50;88.60
42199;DHT22;27868;45.184;5.786;2022-08-19T03:39:12;21.50;88.60
42199;DHT22;27868;45.184;5.786;2022-08-19T03:41:57;21.50;88.30
42199;DHT22;27868;45.184;5.786;2022-08-19T03:44:44;21.50;88.40
42199;DHT22;27868;45.184;5.786;2022-08-19T03:47:29;21.50;88.60
42199;DHT22;27868;45.184;5.786;2022-08-19T03:50:15;21.50;88.60
42199;DHT22;27868;45.184;5.786;2022-08-19T03:53:00;21.40;88.70
42199;DHT22;27868;45.184;5.786;2022-08-19T03:55:45;21.40;88.80
42199;DHT22;27868;45.184;5.786;2022-08-19T03:58:30;21.40;88.80
42199;DHT22;27868;45.184;5.786;2022-08-19T04:01:17;21.40;88.70
42199;DHT22;27868;45.184;5.786;2022-08-19T04:04:04;21.50;88.60
42199;DHT22;27868;45.184;5.786;2022-08-19T04:06:49;21.40;88.60
42199;DHT22;27868;45.184;5.786;2022-08-19T04:09:36;21.40;89.10
42199;DHT22;27868;45.184;5.786;2022-08-19T04:12:20;21.40;88.50
42199;DHT22;27868;45.184;5.786;2022-08-19T04:15:05;21.40;88.70
42199;DHT22;27868;45.184;5.786;2022-08-19T04:17:50;21.40;88.60
42199;DHT22;27868;45.184;5.786;2022-08-19T04:20:43;21.40;88.40
42199;DHT22;27868;45.184;5.786;2022-08-19T04:23:29;21.40;88.80
42199;DHT22;27868;45.184;5.786;2022-08-19T04:26:17;21.40;88.90
42199;DHT22;27868;45.184;5.786;2022-08-19T04:29:07;21.40;88.90
42199;DHT22;27868;45.184;5.786;2022-08-19T04:31:54;21.40;89.00
42199;DHT22;27868;45.184;5.786;2022-08-19T04:34:39;21.40;89.10
42199;DHT22;27868;45.184;5.786;2022-08-19T04:37:23;21.40;89.20
42199;DHT22;27868;45.184;5.786;2022-08-19T04:40:09;21.40;89.30
42199;DHT22;27868;45.184;5.786;2022-08-19T04:43:13;21.40;89.30
42199;DHT22;27868;45.184;5.786;2022-08-19T04:46:05;21.40;90.00
42199;DHT22;27868;45.184;5.786;2022-08-19T04:48:50;21.40;89.60
42199;DHT22;27868;45.184;5.786;2022-08-19T04:51:35;21.40;89.80
42199;DHT22;27868;45.184;5.786;2022-08-19T04:54:21;21.40;89.80
42199;DHT22;27868;45.184;5.786;2022-08-19T04:57:08;21.40;89.80
42199;DHT22;27868;45.184;5.786;2022-08-19T04:59:55;21.40;89.80
42199;DHT22;27868;45.184;5.786;2022-08-19T05:02:40;21.40;89.90
42199;DHT22;27868;45.184;5.786;2022-08-19T05:05:24;21.40;89.80
42199;DHT22;27868;45.184;5.786;2022-08-19T05:08:09;21.40;89.90
42199;DHT22;27868;45.184;5.786;2022-08-19T05:10:53;21.40;90.00
42199;DHT22;27868;45.184;5.786;2022-08-19T05:13:38;21.40;89.90
42199;DHT22;27868;45.184;5.786;2022-08-19T05:16:25;21.40;89.90
42199;DHT22;27868;45.184;5.786;2022-08-19T05:19:10;21.40;90.00
42199;DHT22;27868;45.184;5.786;2022-08-19T05:22:13;21.40;90.00
42199;DHT22;27868;45.184;5.786;2022-08-19T05:25:20;21.40;90.00
42199;DHT22;27868;45.184;5.786;2022-08-19T05:28:04;21.40;90.10
42199;DHT22;27868;45.184;5.786;2022-08-19T05:30:49;21.40;90.30
42199;DHT22;27868;45.184;5.786;2022-08-19T05:33:35;21.40;90.10
42199;DHT22;27868;45.184;5.786;2022-08-19T05:36:20;21.40;90.10
42199;DHT22;27868;45.184;5.786;2022-08-19T05:39:05;21.40;90.00
42199;DHT22;27868;45.184;5.786;2022-08-19T05:41:59;21.40;90.00
42199;DHT22;27868;45.184;5.786;2022-08-19T05:44:44;21.40;90.00
42199;DHT22;27868;45.184;5.786;2022-08-19T05:47:29;21.40;90.10
42199;DHT22;27868;45.184;5.786;2022-08-19T05:50:14;21.40;90.10
42199;DHT22;27868;45.184;5.786;2022-08-19T05:52:59;21.40;90.10
42199;DHT22;27868;45.184;5.786;2022-08-19T05:55:43;21.40;90.10
42199;DHT22;27868;45.184;5.786;2022-08-19T05:58:28;21.40;90.10
42199;DHT22;27868;45.184;5.786;2022-08-19T06:01:15;21.40;90.10
42199;DHT22;27868;45.184;5.786;2022-08-19T06:04:01;21.40;90.20
42199;DHT22;27868;45.184;5.786;2022-08-19T06:06:47;21.40;90.10
42199;DHT22;27868;45.184;5.786;2022-08-19T06:09:32;21.50;90.60
42199;DHT22;27868;45.184;5.786;2022-08-19T06:12:16;21.40;90.30
42199;DHT22;27868;45.184;5.786;2022-08-19T06:15:12;21.50;90.40
42199;DHT22;27868;45.184;5.786;2022-08-19T06:17:57;21.50;90.50
42199;DHT22;27868;45.184;5.786;2022-08-19T06:20:42;21.50;90.60
42199;DHT22;27868;45.184;5.786;2022-08-19T06:23:27;21.50;90.70
42199;DHT22;27868;45.184;5.786;2022-08-19T06:26:12;21.50;90.70
42199;DHT22;27868;45.184;5.786;2022-08-19T06:28:57;21.60;90.70
42199;DHT22;27868;45.184;5.786;2022-08-19T06:31:44;21.60;90.70
42199;DHT22;27868;45.184;5.786;2022-08-19T06:34:31;21.60;90.80
42199;DHT22;27868;45.184;5.786;2022-08-19T06:37:16;21.60;90.80
42199;DHT22;27868;45.184;5.786;2022-08-19T06:40:00;21.70;90.80
42199;DHT22;27868;45.184;5.786;2022-08-19T06:42:45;21.60;90.80
42199;DHT22;27868;45.184;5.786;2022-08-19T06:45:29;21.60;90.80
42199;DHT22;27868;45.184;5.786;2022-08-19T06:48:14;21.70;90.90
42199;DHT22;27868;45.184;5.786;2022-08-19T06:50:59;21.70;90.90
42199;DHT22;27868;45.184;5.786;2022-08-19T06:53:44;21.70;91.00
42199;DHT22;27868;45.184;5.786;2022-08-19T06:56:32;21.70;90.90
42199;DHT22;27868;45.184;5.786;2022-08-19T06:59:22;21.70;90.80
42199;DHT22;27868;45.184;5.786;2022-08-19T07:02:11;21.70;90.90
42199;DHT22;27868;45.184;5.786;2022-08-19T07:04:56;21.70;90.90
42199;DHT22;27868;45.184;5.786;2022-08-19T07:07:42;21.80;90.90
42199;DHT22;27868;45.184;5.786;2022-08-19T07:10:27;21.80;90.90
42199;DHT22;27868;45.184;5.786;2022-08-19T07:13:11;21.70;90.90
42199;DHT22;27868;45.184;5.786;2022-08-19T07:15:56;21.80;91.00
42199;DHT22;27868;45.184;5.786;2022-08-19T07:18:41;21.80;91.00
42199;DHT22;27868;45.184;5.786;2022-08-19T07:21:28;21.80;91.10
42199;DHT22;27868;45.184;5.786;2022-08-19T07:24:12;21.80;91.10
42199;DHT22;27868;45.184;5.786;2022-08-19T07:26:59;21.80;91.10
42199;DHT22;27868;45.184;5.786;2022-08-19T07:29:46;21.80;91.10
42199;DHT22;27868;45.184;5.786;2022-08-19T07:32:31;21.90;91.10
42199;DHT22;27868;45.184;5.786;2022-08-19T07:35:16;21.90;91.10
42199;DHT22;27868;45.184;5.786;2022-08-19T07:38:03;21.90;91.00
42199;DHT22;27868;45.184;5.786;2022-08-19T07:40:48;21.90;91.00
42199;DHT22;27868;45.184;5.786;2022-08-19T07:43:32;21.90;91.00
42199;DHT22;27868;45.184;5.786;2022-08-19T07:46:18;22.00;91.00
42199;DHT22;27868;45.184;5.786;2022-08-19T07:49:05;22.00;91.10
42199;DHT22;27868;45.184;5.786;2022-08-19T07:51:59;22.00;91.10
42199;DHT22;27868;45.184;5.786;2022-08-19T07:54:45;22.10;90.90
42199;DHT22;27868;45.184;5.786;2022-08-19T07:57:30;22.10;90.90
42199;DHT22;27868;45.184;5.786;2022-08-19T08:00:15;22.10;91.00
42199;DHT22;27868;45.184;5.786;2022-08-19T08:02:59;22.10;90.80
42199;DHT22;27868;45.184;5.786;2022-08-19T08:05:45;22.10;90.80
42199;DHT22;27868;45.184;5.786;2022-08-19T08:08:48;22.20;90.80
42199;DHT22;27868;45.184;5.786;2022-08-19T08:11:33;22.20;90.70
42199;DHT22;27868;45.184;5.786;2022-08-19T08:14:30;22.20;90.50
42199;DHT22;27868;45.184;5.786;2022-08-19T08:17:18;22.20;90.10
42199;DHT22;27868;45.184;5.786;2022-08-19T08:20:05;22.30;90.70
42199;DHT22;27868;45.184;5.786;2022-08-19T08:22:50;22.30;90.70
42199;DHT22;27868;45.184;5.786;2022-08-19T08:25:56;22.30;90.70
42199;DHT22;27868;45.184;5.786;2022-08-19T08:28:41;22.40;91.00
42199;DHT22;27868;45.184;5.786;2022-08-19T08:31:26;22.40;90.80
42199;DHT22;27868;45.184;5.786;2022-08-19T08:34:13;22.50;90.80
42199;DHT22;27868;45.184;5.786;2022-08-19T08:36:58;22.50;90.70
42199;DHT22;27868;45.184;5.786;2022-08-19T08:39:43;22.50;90.50
42199;DHT22;27868;45.184;5.786;2022-08-19T08:42:32;22.50;90.60
42199;DHT22;27868;45.184;5.786;2022-08-19T08:45:20;22.50;90.30
42199;DHT22;27868;45.184;5.786;2022-08-19T08:48:20;22.60;90.30
42199;DHT22;27868;45.184;5.786;2022-08-19T08:51:10;22.60;90.00
42199;DHT22;27868;45.184;5.786;2022-08-19T08:53:57;22.60;90.10
42199;DHT22;27868;45.184;5.786;2022-08-19T08:56:43;22.60;90.20
42199;DHT22;27868;45.184;5.786;2022-08-19T08:59:37;22.60;90.20
42199;DHT22;27868;45.184;5.786;2022-08-19T09:02:24;22.70;90.20
42199;DHT22;27868;45.184;5.786;2022-08-19T09:05:11;22.70;90.40
42199;DHT22;27868;45.184;5.786;2022-08-19T09:08:07;22.80;90.30
42199;DHT22;27868;45.184;5.786;2022-08-19T09:10:54;22.90;90.30
42199;DHT22;27868;45.184;5.786;2022-08-19T09:16:33;23.00;90.10
42199;DHT22;27868;45.184;5.786;2022-08-19T09:19:18;23.00;90.30
42199;DHT22;27868;45.184;5.786;2022-08-19T09:22:03;23.00;90.00
42199;DHT22;27868;45.184;5.786;2022-08-19T09:24:50;23.10;90.30
42199;DHT22;27868;45.184;5.786;2022-08-19T09:27:37;23.10;89.60
42199;DHT22;27868;45.184;5.786;2022-08-19T09:30:28;23.10;89.90
42199;DHT22;27868;45.184;5.786;2022-08-19T09:33:13;23.10;89.70
42199;DHT22;27868;45.184;5.786;2022-08-19T09:36:06;23.10;89.80
42199;DHT22;27868;45.184;5.786;2022-08-19T09:38:52;23.10;90.00
42199;DHT22;27868;45.184;5.786;2022-08-19T09:41:37;23.10;88.60
42199;DHT22;27868;45.184;5.786;2022-08-19T09:44:22;23.10;88.40
42199;DHT22;27868;45.184;5.786;2022-08-19T09:47:08;23.10;88.80
42199;DHT22;27868;45.184;5.786;2022-08-19T09:49:53;23.10;88.70
42199;DHT22;27868;45.184;5.786;2022-08-19T09:52:39;23.10;88.60
42199;DHT22;27868;45.184;5.786;2022-08-19T09:55:25;23.10;88.00
42199;DHT22;27868;45.184;5.786;2022-08-19T09:58:09;23.10;88.30
42199;DHT22;27868;45.184;5.786;2022-08-19T10:00:56;23.10;88.70
42199;DHT22;27868;45.184;5.786;2022-08-19T10:03:41;23.10;89.00
42199;DHT22;27868;45.184;5.786;2022-08-19T10:06:27;23.10;88.40
42199;DHT22;27868;45.184;5.786;2022-08-19T10:09:17;23.20;88.40
42199;DHT22;27868;45.184;5.786;2022-08-19T10:12:04;23.20;87.90
42199;DHT22;27868;45.184;5.786;2022-08-19T10:14:49;23.20;87.90
42199;DHT22;27868;45.184;5.786;2022-08-19T10:17:35;23.20;87.20
42199;DHT22;27868;45.184;5.786;2022-08-19T10:20:19;23.20;87.70
42199;DHT22;27868;45.184;5.786;2022-08-19T10:23:04;23.30;88.30
42199;DHT22;27868;45.184;5.786;2022-08-19T10:25:49;23.30;88.90
42199;DHT22;27868;45.184;5.786;2022-08-19T10:28:35;23.30;89.40
42199;DHT22;27868;45.184;5.786;2022-08-19T10:31:28;23.40;88.60
42199;DHT22;27868;45.184;5.786;2022-08-19T10:34:13;23.40;88.10
42199;DHT22;27868;45.184;5.786;2022-08-19T10:36:58;23.40;88.40
42199;DHT22;27868;45.184;5.786;2022-08-19T10:39:46;23.40;87.60
42199;DHT22;27868;45.184;5.786;2022-08-19T10:42:32;23.40;87.70
42199;DHT22;27868;45.184;5.786;2022-08-19T10:45:17;23.40;86.80
42199;DHT22;27868;45.184;5.786;2022-08-19T10:48:02;23.40;87.00
42199;DHT22;27868;45.184;5.786;2022-08-19T10:50:47;23.40;87.20
42199;DHT22;27868;45.184;5.786;2022-08-19T10:53:50;23.50;87.20
42199;DHT22;27868;45.184;5.786;2022-08-19T10:56:36;23.50;86.60
42199;DHT22;27868;45.184;5.786;2022-08-19T10:59:36;23.50;86.30
42199;DHT22;27868;45.184;5.786;2022-08-19T11:02:21;23.50;86.90
42199;DHT22;27868;45.184;5.786;2022-08-19T11:05:06;23.60;86.90
42199;DHT22;27868;45.184;5.786;2022-08-19T11:07:51;23.60;87.50
42199;DHT22;27868;45.184;5.786;2022-08-19T11:10:36;23.60;87.30
42199;DHT22;27868;45.184;5.786;2022-08-19T11:13:21;23.70;88.00
42199;DHT22;27868;45.184;5.786;2022-08-19T11:16:11;23.70;86.60
42199;DHT22;27868;45.184;5.786;2022-08-19T11:18:59;23.70;86.60
42199;DHT22;27868;45.184;5.786;2022-08-19T11:21:46;23.80;86.60
42199;DHT22;27868;45.184;5.786;2022-08-19T11:24:31;23.90;86.70
42199;DHT22;27868;45.184;5.786;2022-08-19T11:27:17;23.90;84.30
42199;DHT22;27868;45.184;5.786;2022-08-19T11:30:02;23.90;83.90
42199;DHT22;27868;45.184;5.786;2022-08-19T11:32:48;23.90;84.20
42199;DHT22;27868;45.184;5.786;2022-08-19T11:35:33;23.90;83.30
42199;DHT22;27868;45.184;5.786;2022-08-19T11:38:18;23.90;83.80
42199;DHT22;27868;45.184;5.786;2022-08-19T11:41:06;23.80;83.20
42199;DHT22;27868;45.184;5.786;2022-08-19T11:43:52;23.90;83.40
42199;DHT22;27868;45.184;5.786;2022-08-19T11:46:41;23.90;84.20
42199;DHT22;27868;45.184;5.786;2022-08-19T11:49:29;23.90;83.80
42199;DHT22;27868;45.184;5.786;2022-08-19T11:52:14;23.90;83.80
42199;DHT22;27868;45.184;5.786;2022-08-19T11:54:59;24.00;84.60
42199;DHT22;27868;45.184;5.786;2022-08-19T11:57:43;24.00;83.60
42199;DHT22;27868;45.184;5.786;2022-08-19T12:00:28;24.00;83.10
42199;DHT22;27868;45.184;5.786;2022-08-19T12:03:12;24.00;82.70
42199;DHT22;27868;45.184;5.786;2022-08-19T12:05:58;24.00;81.50
42199;DHT22;27868;45.184;5.786;2022-08-19T12:08:43;24.00;82.70
42199;DHT22;27868;45.184;5.786;2022-08-19T12:11:29;24.00;83.30
42199;DHT22;27868;45.184;5.786;2022-08-19T12:14:14;24.00;82.80
42199;DHT22;27868;45.184;5.786;2022-08-19T12:16:58;24.10;83.30
42199;DHT22;27868;45.184;5.786;2022-08-19T12:19:44;24.10;84.20
42199;DHT22;27868;45.184;5.786;2022-08-19T12:22:28;24.10;84.40
42199;DHT22;27868;45.184;5.786;2022-08-19T12:25:13;24.20;85.00
42199;DHT22;27868;45.184;5.786;2022-08-19T12:27:58;24.20;85.20
42199;DHT22;27868;45.184;5.786;2022-08-19T12:30:43;24.20;85.10
42199;DHT22;27868;45.184;5.786;2022-08-19T12:33:28;24.30;84.90
42199;DHT22;27868;45.184;5.786;2022-08-19T12:36:14;24.40;85.50
42199;DHT22;27868;45.184;5.786;2022-08-19T12:38:59;24.60;84.00
42199;DHT22;27868;45.184;5.786;2022-08-19T12:41:44;24.90;83.10
42199;DHT22;27868;45.184;5.786;2022-08-19T12:44:28;24.90;82.50
42199;DHT22;27868;45.184;5.786;2022-08-19T12:47:15;25.00;81.20
42199;DHT22;27868;45.184;5.786;2022-08-19T12:49:59;25.00;79.60
42199;DHT22;27868;45.184;5.786;2022-08-19T12:52:44;25.00;78.60
42199;DHT22;27868;45.184;5.786;2022-08-19T12:55:30;25.00;77.80
42199;DHT22;27868;45.184;5.786;2022-08-19T12:58:14;25.00;76.50
42199;DHT22;27868;45.184;5.786;2022-08-19T13:00:59;25.00;76.90
42199;DHT22;27868;45.184;5.786;2022-08-19T13:03:45;24.90;75.60
42199;DHT22;27868;45.184;5.786;2022-08-19T13:06:30;24.90;77.80
42199;DHT22;27868;45.184;5.786;2022-08-19T13:09:15;24.90;77.40
42199;DHT22;27868;45.184;5.786;2022-08-19T13:11:59;24.80;77.70
42199;DHT22;27868;45.184;5.786;2022-08-19T13:14:51;24.80;78.40
42199;DHT22;27868;45.184;5.786;2022-08-19T13:17:36;24.80;77.70
42199;DHT22;27868;45.184;5.786;2022-08-19T13:20:21;24.80;77.60
42199;DHT22;27868;45.184;5.786;2022-08-19T13:23:07;24.80;77.40
42199;DHT22;27868;45.184;5.786;2022-08-19T13:26:00;24.70;77.60
42199;DHT22;27868;45.184;5.786;2022-08-19T13:28:45;24.70;77.50
42199;DHT22;27868;45.184;5.786;2022-08-19T13:31:49;24.60;78.60
42199;DHT22;27868;45.184;5.786;2022-08-19T13:34:52;24.60;79.20
42199;DHT22;27868;45.184;5.786;2022-08-19T13:37:37;24.50;79.90
42199;DHT22;27868;45.184;5.786;2022-08-19T13:40:27;24.50;80.10
42199;DHT22;27868;45.184;5.786;2022-08-19T13:43:13;24.50;79.90
42199;DHT22;27868;45.184;5.786;2022-08-19T13:45:58;24.50;80.30
42199;DHT22;27868;45.184;5.786;2022-08-19T13:48:43;24.50;80.60
42199;DHT22;27868;45.184;5.786;2022-08-19T13:51:27;24.50;80.70
42199;DHT22;27868;45.184;5.786;2022-08-19T13:54:12;24.40;80.50
42199;DHT22;27868;45.184;5.786;2022-08-19T13:56:57;24.40;79.60
42199;DHT22;27868;45.184;5.786;2022-08-19T13:59:41;24.30;79.70
42199;DHT22;27868;45.184;5.786;2022-08-19T14:02:26;24.30;80.20
42199;DHT22;27868;45.184;5.786;2022-08-19T14:05:13;24.30;80.40
42199;DHT22;27868;45.184;5.786;2022-08-19T14:07:59;24.30;80.20
42199;DHT22;27868;45.184;5.786;2022-08-19T14:10:44;24.20;79.90
42199;DHT22;27868;45.184;5.786;2022-08-19T14:13:29;24.20;79.50
42199;DHT22;27868;45.184;5.786;2022-08-19T14:16:15;24.20;79.70
42199;DHT22;27868;45.184;5.786;2022-08-19T14:18:59;24.20;80.80
42199;DHT22;27868;45.184;5.786;2022-08-19T14:21:43;24.20;79.50
42199;DHT22;27868;45.184;5.786;2022-08-19T14:24:28;24.20;80.30
42199;DHT22;27868;45.184;5.786;2022-08-19T14:27:13;24.20;80.40
42199;DHT22;27868;45.184;5.786;2022-08-19T14:29:57;24.20;80.00
42199;DHT22;27868;45.184;5.786;2022-08-19T14:32:42;24.20;79.10
42199;DHT22;27868;45.184;5.786;2022-08-19T14:35:29;24.20;80.00
42199;DHT22;27868;45.184;5.786;2022-08-19T14:38:16;24.20;80.00
42199;DHT22;27868;45.184;5.786;2022-08-19T14:41:17;24.20;79.60
42199;DHT22;27868;45.184;5.786;2022-08-19T14:44:03;24.30;79.10
42199;DHT22;27868;45.184;5.786;2022-08-19T14:46:47;24.30;79.20
42199;DHT22;27868;45.184;5.786;2022-08-19T14:49:32;24.20;78.90
42199;DHT22;27868;45.184;5.786;2022-08-19T14:52:17;24.20;78.20
42199;DHT22;27868;45.184;5.786;2022-08-19T14:55:02;24.20;78.00
42199;DHT22;27868;45.184;5.786;2022-08-19T14:57:47;24.20;78.80
42199;DHT22;27868;45.184;5.786;2022-08-19T15:00:32;24.20;78.90
42199;DHT22;27868;45.184;5.786;2022-08-19T15:03:16;24.10;79.20
42199;DHT22;27868;45.184;5.786;2022-08-19T15:06:04;24.10;79.40
42199;DHT22;27868;45.184;5.786;2022-08-19T15:08:49;24.10;79.40
42199;DHT22;27868;45.184;5.786;2022-08-19T15:11:36;24.10;79.30
42199;DHT22;27868;45.184;5.786;2022-08-19T15:14:22;24.10;79.80
42199;DHT22;27868;45.184;5.786;2022-08-19T15:17:07;24.00;79.80
42199;DHT22;27868;45.184;5.786;2022-08-19T15:19:52;24.00;79.80
42199;DHT22;27868;45.184;5.786;2022-08-19T15:22:36;24.00;79.40
42199;DHT22;27868;45.184;5.786;2022-08-19T15:25:21;24.00;79.50
42199;DHT22;27868;45.184;5.786;2022-08-19T15:28:05;24.00;79.80
42199;DHT22;27868;45.184;5.786;2022-08-19T15:30:51;24.00;80.00
42199;DHT22;27868;45.184;5.786;2022-08-19T15:33:36;24.00;80.60
42199;DHT22;27868;45.184;5.786;2022-08-19T15:36:21;24.00;80.20
42199;DHT22;27868;45.184;5.786;2022-08-19T15:39:06;24.00;80.40
42199;DHT22;27868;45.184;5.786;2022-08-19T15:41:50;24.00;80.90
42199;DHT22;27868;45.184;5.786;2022-08-19T15:44:36;23.90;80.30
42199;DHT22;27868;45.184;5.786;2022-08-19T15:47:20;23.90;80.70
42199;DHT22;27868;45.184;5.786;2022-08-19T15:50:28;23.90;81.30
42199;DHT22;27868;45.184;5.786;2022-08-19T15:53:15;23.90;81.10
42199;DHT22;27868;45.184;5.786;2022-08-19T15:55:59;23.90;80.60
42199;DHT22;27868;45.184;5.786;2022-08-19T15:58:44;23.90;81.00
42199;DHT22;27868;45.184;5.786;2022-08-19T16:01:47;23.80;81.90
42199;DHT22;27868;45.184;5.786;2022-08-19T16:04:51;23.90;82.60
42199;DHT22;27868;45.184;5.786;2022-08-19T16:07:55;23.90;83.30
42199;DHT22;27868;45.184;5.786;2022-08-19T16:10:39;23.90;83.50
42199;DHT22;27868;45.184;5.786;2022-08-19T16:13:24;23.90;83.00
42199;DHT22;27868;45.184;5.786;2022-08-19T16:16:09;23.90;83.40
42199;DHT22;27868;45.184;5.786;2022-08-19T16:18:58;23.90;82.90
42199;DHT22;27868;45.184;5.786;2022-08-19T16:21:46;24.00;82.20
42199;DHT22;27868;45.184;5.786;2022-08-19T16:24:31;24.00;82.10
42199;DHT22;27868;45.184;5.786;2022-08-19T16:27:17;24.00;82.00
42199;DHT22;27868;45.184;5.786;2022-08-19T16:30:02;24.00;82.20
42199;DHT22;27868;45.184;5.786;2022-08-19T16:32:48;24.00;81.80
42199;DHT22;27868;45.184;5.786;2022-08-19T16:35:32;24.00;82.10
42199;DHT22;27868;45.184;5.786;2022-08-19T16:38:17;24.10;81.20
42199;DHT22;27868;45.184;5.786;2022-08-19T16:41:02;24.10;81.80
42199;DHT22;27868;45.184;5.786;2022-08-19T16:43:48;24.10;81.30
42199;DHT22;27868;45.184;5.786;2022-08-19T16:46:36;24.10;81.70
42199;DHT22;27868;45.184;5.786;2022-08-19T16:49:21;24.10;82.20
42199;DHT22;27868;45.184;5.786;2022-08-19T16:52:08;24.10;82.70
42199;DHT22;27868;45.184;5.786;2022-08-19T16:54:53;24.10;82.10
42199;DHT22;27868;45.184;5.786;2022-08-19T16:57:38;24.10;80.80
42199;DHT22;27868;45.184;5.786;2022-08-19T17:00:23;24.20;80.00
42199;DHT22;27868;45.184;5.786;2022-08-19T17:03:08;24.20;80.20
42199;DHT22;27868;45.184;5.786;2022-08-19T17:05:56;24.10;79.90
42199;DHT22;27868;45.184;5.786;2022-08-19T17:08:41;24.20;79.30
42199;DHT22;27868;45.184;5.786;2022-08-19T17:11:27;24.20;79.70
42199;DHT22;27868;45.184;5.786;2022-08-19T17:14:12;24.10;78.80
42199;DHT22;27868;45.184;5.786;2022-08-19T17:16:57;24.10;79.00
42199;DHT22;27868;45.184;5.786;2022-08-19T17:19:42;24.20;77.50
42199;DHT22;27868;45.184;5.786;2022-08-19T17:22:28;24.10;77.30
42199;DHT22;27868;45.184;5.786;2022-08-19T17:25:13;24.10;76.50
42199;DHT22;27868;45.184;5.786;2022-08-19T17:28:10;24.10;75.80
42199;DHT22;27868;45.184;5.786;2022-08-19T17:30:56;24.10;76.20
42199;DHT22;27868;45.184;5.786;2022-08-19T17:33:41;24.10;76.90
42199;DHT22;27868;45.184;5.786;2022-08-19T17:36:27;24.10;77.30